ヘルシンキ/ヴァンター の空港の天気 - METARとTAF

ヘルシンキ・ヴァンター国際空港 ( EFHK / HEL ) - フィンランド ヴァンター
飛行場実況気象(Metar)
観測時間09/23 02:20 EEST (09/22 23:20 UTC)
風向・風速不定 1m/s
視程10km以上
天気現象
全天の8割程度の雲 雲底高度 760m
気温3℃
湿度93%
気圧1015hPa
METAREFHK 222320Z VRB01KT 9999 BKN025 03/02 Q1015 NOSIG
過去の天気等 Google飛行場航空写真 Wunderground天気予報

過去48時間のMETAR

飛行場予報(TAF)
発表時間: 9/22 23:37 EEST (9/22 20:37 UTC)
予報対象時間: 23日0時 EEST ~ 24日0時 EEST
風向・風速不定 1m/s
視程10km以上
なし
23日9時 EEST ~ 23日11時 EEST に徐々に
風向・風速南東 8m/s
23日18時 EEST から 確率 30% で
風向・風速東南東 9m/s 瞬間風速 14m/s
視程7000m
天気現象
全天の8割程度の雲 雲底高度 370m
全天の8割程度の雲 雲底高度 910m
TAF EFHK 222037Z 2221/2321 VRB01KT CAVOK
BECMG 2306/2308 14015KT
PROB30 2315/2321 12018G28KT 7000 RA BKN012 BKN030